Time;durP1;ratioP1;P1;durP2;ratioP2;P2;SDS_P1;SDS_P2;PMS_P1;PMS_P2;Temp;Humidity;BMP_temperature;BMP_pressure;BME280_temperature;BME280_humidity;BME280_pressure;Samples;Min_cycle;Max_cycle;Signal;HPM_P1;HPM_P2
2023/05/09 00:01:17;;;;;;;23.60;22.30;;;;;;;;;;5084858;28;20420;-82
2023/05/09 00:03:44;;;;;;;24.37;22.73;;;;;;;;;;5086426;28;20409;-85
2023/05/09 00:06:12;;;;;;;24.13;22.63;;;;;;;;;;5085234;28;20428;-83
2023/05/09 00:08:40;;;;;;;24.47;23.07;;;;;;;;;;5085771;28;20470;-85
2023/05/09 00:11:07;;;;;;;24.60;23.17;;;;;;;;;;5084576;28;20457;-84
2023/05/09 00:13:36;;;;;;;24.20;22.80;;;;;;;;;;5085487;28;20460;-85
2023/05/09 00:16:04;;;;;;;26.30;24.47;;;;;;;;;;5084915;28;20488;-84
2023/05/09 00:18:32;;;;;;;24.87;23.47;;;;;;;;;;5085445;28;20462;-84
2023/05/09 00:21:01;;;;;;;26.07;24.30;;;;;;;;;;5083736;28;20502;-84
2023/05/09 00:23:28;;;;;;;25.17;23.60;;;;;;;;;;5084346;28;20433;-84
2023/05/09 00:25:55;;;;;;;25.30;23.53;;;;;;;;;;5083937;28;20428;-84
2023/05/09 00:28:22;;;;;;;23.80;22.50;;;;;;;;;;5084546;28;20446;-84
2023/05/09 00:30:51;;;;;;;23.13;21.83;;;;;;;;;;5084566;28;20478;-83
2023/05/09 00:33:18;;;;;;;23.90;22.30;;;;;;;;;;5083856;28;20494;-84
2023/05/09 00:35:45;;;;;;;24.40;23.00;;;;;;;;;;5083527;28;20428;-83
2023/05/09 00:38:12;;;;;;;23.83;22.43;;;;;;;;;;5083632;28;20519;-83
2023/05/09 00:40:39;;;;;;;23.97;22.67;;;;;;;;;;5083478;28;21049;-84
2023/05/09 00:43:06;;;;;;;23.20;21.77;;;;;;;;;;5084231;28;20477;-83
2023/05/09 00:45:33;;;;;;;23.57;22.20;;;;;;;;;;5082854;28;20435;-83
2023/05/09 00:48:02;;;;;;;23.37;21.87;;;;;;;;;;5083468;28;20446;-84
2023/05/09 00:50:29;;;;;;;22.80;21.50;;;;;;;;;;5083354;28;20543;-84
2023/05/09 00:52:56;;;;;;;22.90;21.60;;;;;;;;;;5083322;28;20896;-84
2023/05/09 00:55:23;;;;;;;24.17;22.50;;;;;;;;;;5082621;28;20424;-84
2023/05/09 00:57:50;;;;;;;23.40;22.00;;;;;;;;;;5082552;28;20449;-84
2023/05/09 01:00:18;;;;;;;22.20;20.90;;;;;;;;;;5082624;28;20464;-84
2023/05/09 01:02:47;;;;;;;22.40;21.10;;;;;;;;;;5083138;28;20480;-84
2023/05/09 01:05:16;;;;;;;23.40;21.80;;;;;;;;;;5082715;28;20453;-84
2023/05/09 01:07:46;;;;;;;22.13;20.93;;;;;;;;;;5082828;28;20430;-84
2023/05/09 01:10:18;;;;;;;581.53;426.95;;;;;;;;;;5082071;28;20539;-84
2023/05/09 01:12:48;;;;;;;123.50;102.22;;;;;;;;;;5082725;28;20200;-84
2023/05/09 01:15:19;;;;;;;22.87;21.20;;;;;;;;;;5091058;28;20198;-82
2023/05/09 01:17:50;;;;;;;24.20;22.80;;;;;;;;;;5096502;28;20480;-82
2023/05/09 01:20:22;;;;;;;25.37;23.67;;;;;;;;;;5096524;28;20911;-81
2023/05/09 01:22:53;;;;;;;23.97;22.60;;;;;;;;;;5087304;28;20427;-84
2023/05/09 01:25:28;;;;;;;22.60;21.20;;;;;;;;;;5084708;28;20439;-84
2023/05/09 01:27:58;;;;;;;23.03;21.53;;;;;;;;;;5084252;28;20429;-83
2023/05/09 01:30:27;;;;;;;22.67;21.37;;;;;;;;;;5084478;28;20492;-83
2023/05/09 01:32:57;;;;;;;23.30;22.00;;;;;;;;;;5084147;28;20441;-84
2023/05/09 01:35:26;;;;;;;23.30;21.90;;;;;;;;;;5082772;28;20478;-81
2023/05/09 01:37:54;;;;;;;22.30;21.00;;;;;;;;;;5083031;28;20832;-83
2023/05/09 01:40:22;;;;;;;21.50;20.40;;;;;;;;;;5082793;28;20466;-84
2023/05/09 01:42:52;;;;;;;22.47;20.97;;;;;;;;;;5083648;28;20428;-83
2023/05/09 01:45:20;;;;;;;23.67;22.27;;;;;;;;;;5084585;28;20511;-84
2023/05/09 01:47:50;;;;;;;22.70;21.30;;;;;;;;;;5082157;28;20478;-83
2023/05/09 01:50:18;;;;;;;22.80;21.40;;;;;;;;;;5082125;28;20485;-83
2023/05/09 01:52:47;;;;;;;22.80;21.30;;;;;;;;;;5082460;28;20921;-83
2023/05/09 01:55:15;;;;;;;23.40;22.10;;;;;;;;;;5082986;28;20791;-83
2023/05/09 01:57:43;;;;;;;22.43;21.03;;;;;;;;;;5082230;28;20491;-83
2023/05/09 02:00:12;;;;;;;22.17;20.97;;;;;;;;;;5082489;28;20470;-83
2023/05/09 02:02:39;;;;;;;23.73;21.50;;;;;;;;;;5082049;28;20478;-83
2023/05/09 02:05:09;;;;;;;22.40;21.00;;;;;;;;;;5082961;28;20412;-83
2023/05/09 02:07:36;;;;;;;23.97;22.57;;;;;;;;;;5081580;28;20434;-83
2023/05/09 02:10:04;;;;;;;21.67;20.47;;;;;;;;;;5082302;28;20469;-83
2023/05/09 02:12:31;;;;;;;22.87;21.60;;;;;;;;;;5081572;28;20880;-83
2023/05/09 02:14:58;;;;;;;23.57;22.10;;;;;;;;;;5082676;28;20478;-84
2023/05/09 02:17:25;;;;;;;21.93;20.73;;;;;;;;;;5081332;28;20476;-83
2023/05/09 02:19:52;;;;;;;22.23;21.03;;;;;;;;;;5081711;28;20531;-83
2023/05/09 02:22:21;;;;;;;22.30;21.07;;;;;;;;;;5082191;28;20478;-84
2023/05/09 02:24:48;;;;;;;23.47;22.10;;;;;;;;;;5081861;28;20473;-83
2023/05/09 02:27:15;;;;;;;22.00;20.77;;;;;;;;;;5081079;28;20823;-83
2023/05/09 02:29:44;;;;;;;22.97;21.67;;;;;;;;;;5082036;28;20504;-84
2023/05/09 02:32:12;;;;;;;21.63;20.43;;;;;;;;;;5081882;28;20446;-84
2023/05/09 02:34:39;;;;;;;22.90;21.57;;;;;;;;;;5081890;28;20482;-84
2023/05/09 02:37:07;;;;;;;22.40;21.10;;;;;;;;;;5081218;28;20466;-84
2023/05/09 02:39:36;;;;;;;22.40;21.13;;;;;;;;;;5081321;28;20482;-84
2023/05/09 02:42:06;;;;;;;22.50;21.10;;;;;;;;;;5081012;28;20444;-83
2023/05/09 02:44:33;;;;;;;21.27;20.17;;;;;;;;;;5081634;28;20857;-84
2023/05/09 02:47:01;;;;;;;22.50;21.20;;;;;;;;;;5081805;28;20421;-83
2023/05/09 02:49:28;;;;;;;24.00;22.60;;;;;;;;;;5081822;28;20442;-83
2023/05/09 02:51:55;;;;;;;22.00;20.80;;;;;;;;;;5082382;28;20438;-83
2023/05/09 02:54:22;;;;;;;21.90;20.60;;;;;;;;;;5082562;28;20830;-84
2023/05/09 02:56:51;;;;;;;23.37;22.07;;;;;;;;;;5081078;28;20462;-84
2023/05/09 02:59:18;;;;;;;22.67;21.40;;;;;;;;;;5083435;28;20952;-83
2023/05/09 03:01:45;;;;;;;23.10;21.50;;;;;;;;;;5087196;28;20483;-83
2023/05/09 03:04:12;;;;;;;23.50;22.10;;;;;;;;;;5088200;28;20511;-84
2023/05/09 03:06:39;;;;;;;23.27;21.77;;;;;;;;;;5087573;28;20507;-84
2023/05/09 03:09:07;;;;;;;23.20;21.90;;;;;;;;;;5086594;28;20508;-83
2023/05/09 03:11:35;;;;;;;23.20;21.60;;;;;;;;;;5086849;28;20508;-83
2023/05/09 03:14:03;;;;;;;24.07;22.37;;;;;;;;;;5086647;28;20891;-84
2023/05/09 03:16:30;;;;;;;23.43;22.03;;;;;;;;;;5086769;28;20450;-83
2023/05/09 03:18:57;;;;;;;22.63;21.33;;;;;;;;;;5086194;28;20440;-83
2023/05/09 03:21:24;;;;;;;24.27;22.67;;;;;;;;;;5086406;28;20805;-83
2023/05/09 03:23:51;;;;;;;23.67;22.17;;;;;;;;;;5085885;28;20443;-83
2023/05/09 03:26:18;;;;;;;24.83;23.33;;;;;;;;;;5085096;28;20904;-84
2023/05/09 03:28:47;;;;;;;23.63;22.13;;;;;;;;;;5086056;28;20401;-83
2023/05/09 03:31:16;;;;;;;24.87;23.37;;;;;;;;;;5085649;28;20473;-84
2023/05/09 03:33:43;;;;;;;24.13;22.40;;;;;;;;;;5085526;28;20854;-85
2023/05/09 03:36:10;;;;;;;24.33;22.83;;;;;;;;;;5083758;28;20461;-84
2023/05/09 03:38:37;;;;;;;24.83;22.93;;;;;;;;;;5084376;28;20416;-84
2023/05/09 03:41:04;;;;;;;25.83;24.23;;;;;;;;;;5083001;28;20485;-84
2023/05/09 03:43:31;;;;;;;25.90;24.23;;;;;;;;;;5084194;28;20444;-85
2023/05/09 03:45:58;;;;;;;24.97;23.47;;;;;;;;;;5084611;28;20453;-85
2023/05/09 03:48:27;;;;;;;25.80;24.20;;;;;;;;;;5084507;28;20461;-81
2023/05/09 03:50:54;;;;;;;25.77;24.17;;;;;;;;;;5083638;28;20820;-80
2023/05/09 03:53:21;;;;;;;26.23;24.63;;;;;;;;;;5086339;28;20441;-78
2023/05/09 03:55:48;;;;;;;26.43;24.73;;;;;;;;;;5084981;28;20519;-80
2023/05/09 03:58:15;;;;;;;27.53;25.70;;;;;;;;;;5085360;28;20454;-80
2023/05/09 04:00:42;;;;;;;24.50;22.90;;;;;;;;;;5084732;28;20496;-80
2023/05/09 04:03:09;;;;;;;26.23;24.53;;;;;;;;;;5084984;28;20449;-81
2023/05/09 04:05:38;;;;;;;25.53;23.53;;;;;;;;;;5083264;28;21031;-79
2023/05/09 04:08:05;;;;;;;24.60;23.07;;;;;;;;;;5084834;28;20424;-79
2023/05/09 04:10:32;;;;;;;25.07;23.47;;;;;;;;;;5083561;28;20449;-80
2023/05/09 04:12:59;;;;;;;25.90;24.10;;;;;;;;;;5083589;28;20442;-79
2023/05/09 04:15:26;;;;;;;25.27;23.67;;;;;;;;;;5083438;28;20456;-79
2023/05/09 04:17:53;;;;;;;26.07;24.20;;;;;;;;;;5086711;28;20446;-81
2023/05/09 04:20:20;;;;;;;26.87;24.63;;;;;;;;;;5086446;28;20436;-81
2023/05/09 04:22:48;;;;;;;27.57;25.60;;;;;;;;;;5086769;28;20454;-81
2023/05/09 04:25:15;;;;;;;26.90;25.00;;;;;;;;;;5085838;28;20537;-81
2023/05/09 04:27:42;;;;;;;25.90;24.10;;;;;;;;;;5086487;28;20420;-80
2023/05/09 04:30:10;;;;;;;26.80;24.90;;;;;;;;;;5084865;28;20869;-80
2023/05/09 04:32:37;;;;;;;26.30;24.50;;;;;;;;;;5085492;28;20442;-80
2023/05/09 04:35:05;;;;;;;27.37;25.57;;;;;;;;;;5085087;28;20542;-80
2023/05/09 04:37:32;;;;;;;26.20;24.30;;;;;;;;;;5084659;28;20503;-80
2023/05/09 04:40:00;;;;;;;26.53;24.67;;;;;;;;;;5084278;28;20444;-81
2023/05/09 04:42:27;;;;;;;25.67;24.07;;;;;;;;;;5084194;28;20424;-81
2023/05/09 04:44:54;;;;;;;25.87;24.13;;;;;;;;;;5083355;28;20832;-81
2023/05/09 04:47:21;;;;;;;26.60;24.70;;;;;;;;;;5083531;28;20474;-79
2023/05/09 04:49:48;;;;;;;27.90;26.00;;;;;;;;;;5083982;28;20440;-79
2023/05/09 04:52:15;;;;;;;27.50;25.60;;;;;;;;;;5083275;28;20420;-81
2023/05/09 04:54:42;;;;;;;26.57;24.77;;;;;;;;;;5082860;28;20501;-80
2023/05/09 04:57:10;;;;;;;27.27;25.47;;;;;;;;;;5083291;28;20440;-80
2023/05/09 04:59:37;;;;;;;28.07;25.90;;;;;;;;;;5083461;28;20432;-78
2023/05/09 05:02:04;;;;;;;27.80;26.00;;;;;;;;;;5082858;28;20454;-80
2023/05/09 05:04:32;;;;;;;27.07;25.30;;;;;;;;;;5083522;28;20475;-80
2023/05/09 05:06:59;;;;;;;27.83;25.77;;;;;;;;;;5082573;28;20470;-79
2023/05/09 05:09:26;;;;;;;26.27;24.27;;;;;;;;;;5083094;28;20519;-79
2023/05/09 05:11:53;;;;;;;29.00;27.10;;;;;;;;;;5082816;28;20468;-79
2023/05/09 05:14:21;;;;;;;25.47;23.87;;;;;;;;;;5083266;28;20509;-79
2023/05/09 05:16:48;;;;;;;27.53;25.60;;;;;;;;;;5083330;28;20444;-79
2023/05/09 05:19:16;;;;;;;26.10;23.97;;;;;;;;;;5083525;28;20509;-81
2023/05/09 05:21:43;;;;;;;26.33;24.63;;;;;;;;;;5082571;28;20408;-81
2023/05/09 05:24:10;;;;;;;26.60;24.87;;;;;;;;;;5084023;28;20475;-81
2023/05/09 05:26:37;;;;;;;25.93;24.13;;;;;;;;;;5082413;28;20470;-81
2023/05/09 05:29:04;;;;;;;26.77;24.97;;;;;;;;;;5081621;28;20455;-81
2023/05/09 05:31:32;;;;;;;24.73;23.17;;;;;;;;;;5085420;28;20446;-79
2023/05/09 05:33:59;;;;;;;27.20;25.30;;;;;;;;;;5084988;28;20420;-80
2023/05/09 05:36:26;;;;;;;27.57;25.67;;;;;;;;;;5083076;28;20440;-80
2023/05/09 05:38:53;;;;;;;26.23;24.53;;;;;;;;;;5081426;28;20516;-79
2023/05/09 05:41:21;;;;;;;26.13;24.43;;;;;;;;;;5082628;28;20443;-80
2023/05/09 05:43:48;;;;;;;25.97;24.17;;;;;;;;;;5082351;28;20549;-78
2023/05/09 05:46:15;;;;;;;27.40;25.40;;;;;;;;;;5082301;28;20909;-80
2023/05/09 05:48:43;;;;;;;27.13;25.37;;;;;;;;;;5083715;28;20859;-80
2023/05/09 05:51:10;;;;;;;27.20;25.50;;;;;;;;;;5082728;28;20962;-80
2023/05/09 05:53:37;;;;;;;26.30;24.60;;;;;;;;;;5083862;28;20494;-80
2023/05/09 05:56:04;;;;;;;25.70;24.00;;;;;;;;;;5083315;28;20483;-80
2023/05/09 05:58:31;;;;;;;25.27;23.57;;;;;;;;;;5081055;28;20436;-80
2023/05/09 06:00:58;;;;;;;27.13;25.23;;;;;;;;;;5082878;28;20420;-82
2023/05/09 06:03:25;;;;;;;28.10;26.23;;;;;;;;;;5081441;28;20496;-81
2023/05/09 06:05:54;;;;;;;29.07;27.07;;;;;;;;;;5082190;28;20454;-80
2023/05/09 06:08:21;;;;;;;27.43;25.50;;;;;;;;;;5085859;28;20428;-78
2023/05/09 06:10:48;;;;;;;28.37;26.17;;;;;;;;;;5096554;28;20453;-79
2023/05/09 06:13:15;;;;;;;27.07;25.37;;;;;;;;;;5095319;28;20427;-80
2023/05/09 06:15:42;;;;;;;27.37;25.57;;;;;;;;;;5093533;28;20478;-80
2023/05/09 06:18:09;;;;;;;27.30;25.50;;;;;;;;;;5085117;28;20461;-79
2023/05/09 06:20:36;;;;;;;27.73;25.63;;;;;;;;;;5084774;28;20559;-81
2023/05/09 06:23:05;;;;;;;28.70;26.90;;;;;;;;;;5083934;28;20425;-79
2023/05/09 06:25:32;;;;;;;28.50;26.67;;;;;;;;;;5082394;28;20756;-78
2023/05/09 06:27:59;;;;;;;30.40;28.10;;;;;;;;;;5083071;28;20537;-78
2023/05/09 06:30:26;;;;;;;29.87;27.73;;;;;;;;;;5082204;28;20447;-79
2023/05/09 06:32:53;;;;;;;28.87;26.83;;;;;;;;;;5084722;28;20982;-80
2023/05/09 06:35:20;;;;;;;29.00;26.57;;;;;;;;;;5087064;28;20511;-79
2023/05/09 06:37:47;;;;;;;29.23;27.23;;;;;;;;;;5086706;28;20424;-78
2023/05/09 06:40:16;;;;;;;28.70;26.70;;;;;;;;;;5086535;28;20469;-79
2023/05/09 06:42:43;;;;;;;30.70;28.20;;;;;;;;;;5086406;28;20454;-80
2023/05/09 06:45:10;;;;;;;30.20;28.07;;;;;;;;;;5086771;28;20420;-81
2023/05/09 06:47:37;;;;;;;29.07;27.03;;;;;;;;;;5086501;28;20470;-80
2023/05/09 06:50:04;;;;;;;30.60;28.30;;;;;;;;;;5086388;28;20459;-80
2023/05/09 06:52:31;;;;;;;30.90;28.70;;;;;;;;;;5085913;28;20424;-80
2023/05/09 06:54:59;;;;;;;29.53;27.33;;;;;;;;;;5085965;28;20495;-80
2023/05/09 06:57:27;;;;;;;30.17;27.97;;;;;;;;;;5085726;28;20433;-79
2023/05/09 06:59:54;;;;;;;30.07;27.80;;;;;;;;;;5085667;28;20444;-82
2023/05/09 07:02:21;;;;;;;30.43;28.33;;;;;;;;;;5085801;28;20456;-79
2023/05/09 07:04:48;;;;;;;30.60;28.30;;;;;;;;;;5084717;28;20448;-83
2023/05/09 07:07:16;;;;;;;30.37;28.23;;;;;;;;;;5082014;28;20429;-78
2023/05/09 07:09:43;;;;;;;29.80;27.80;;;;;;;;;;5083178;28;20474;-84
2023/05/09 07:12:10;;;;;;;29.20;27.30;;;;;;;;;;5085386;28;20479;-82
2023/05/09 07:14:40;;;;;;;30.90;28.60;;;;;;;;;;5088479;28;20450;-82
2023/05/09 07:17:08;;;;;;;31.30;29.03;;;;;;;;;;5087408;28;20458;-82
2023/05/09 07:19:35;;;;;;;30.93;28.63;;;;;;;;;;5086635;28;20450;-81
2023/05/09 07:22:02;;;;;;;30.30;28.10;;;;;;;;;;5084974;28;20496;-82
2023/05/09 07:24:29;;;;;;;29.77;27.77;;;;;;;;;;5085439;28;20439;-81
2023/05/09 07:26:56;;;;;;;28.93;26.90;;;;;;;;;;5085051;28;20482;-81
2023/05/09 07:29:23;;;;;;;32.00;29.57;;;;;;;;;;5085244;28;20467;-82
2023/05/09 07:31:52;;;;;;;30.93;28.63;;;;;;;;;;5084157;28;20438;-83
2023/05/09 07:34:19;;;;;;;31.10;29.00;;;;;;;;;;5089608;28;20441;-81
2023/05/09 07:36:46;;;;;;;32.13;29.70;;;;;;;;;;5088434;28;20469;-82
2023/05/09 07:39:13;;;;;;;30.80;28.57;;;;;;;;;;5087993;28;20471;-83
2023/05/09 07:41:40;;;;;;;31.00;28.70;;;;;;;;;;5087998;28;20444;-82
2023/05/09 07:44:08;;;;;;;29.57;27.60;;;;;;;;;;5087707;28;20477;-82
2023/05/09 07:46:36;;;;;;;31.10;28.70;;;;;;;;;;5086861;28;20445;-81
2023/05/09 07:49:04;;;;;;;30.97;28.67;;;;;;;;;;5086876;28;20480;-80
2023/05/09 07:51:32;;;;;;;31.43;29.13;;;;;;;;;;5086879;28;20441;-81
2023/05/09 07:53:58;;;;;;;29.90;27.80;;;;;;;;;;5086555;28;20493;-81
2023/05/09 07:56:26;;;;;;;32.03;29.73;;;;;;;;;;5086378;28;20490;-81
2023/05/09 07:58:53;;;;;;;31.67;29.37;;;;;;;;;;5086248;28;20504;-81
2023/05/09 08:01:20;;;;;;;31.00;28.70;;;;;;;;;;5083891;28;20423;-81
2023/05/09 08:03:47;;;;;;;31.83;29.40;;;;;;;;;;5082618;28;20510;-83
2023/05/09 08:06:15;;;;;;;33.00;30.60;;;;;;;;;;5083441;28;20462;-80
2023/05/09 08:08:42;;;;;;;29.07;27.07;;;;;;;;;;5066476;28;20525;-88
2023/05/09 08:11:09;;;;;;;32.13;29.47;;;;;;;;;;5059965;28;20464;-88
2023/05/09 08:13:36;;;;;;;30.67;28.27;;;;;;;;;;5060108;28;20459;-82
2023/05/09 08:16:03;;;;;;;29.80;27.70;;;;;;;;;;5060607;28;20517;-86
2023/05/09 08:18:30;;;;;;;31.43;29.23;;;;;;;;;;5060211;28;21144;-81
2023/05/09 08:20:58;;;;;;;31.50;29.30;;;;;;;;;;5060305;28;20467;-79
2023/05/09 08:23:28;;;;;;;33.93;31.23;;;;;;;;;;5060919;28;20517;-81
2023/05/09 08:25:56;;;;;;;31.37;29.13;;;;;;;;;;5066524;28;20444;-81
2023/05/09 08:28:23;;;;;;;28.40;26.50;;;;;;;;;;5081743;28;20429;-82
2023/05/09 08:30:50;;;;;;;30.13;28.03;;;;;;;;;;5080028;28;20461;-82
2023/05/09 08:33:17;;;;;;;31.80;29.50;;;;;;;;;;5080682;28;21009;-81
2023/05/09 08:35:44;;;;;;;31.97;29.77;;;;;;;;;;5079058;28;20463;-81
2023/05/09 08:38:11;;;;;;;32.97;30.53;;;;;;;;;;5081046;28;20452;-81
2023/05/09 08:40:41;;;;;;;30.20;28.20;;;;;;;;;;5082438;28;20477;-80
2023/05/09 08:43:10;;;;;;;30.40;28.20;;;;;;;;;;5081082;28;20422;-80
2023/05/09 08:45:41;;;;;;;31.20;28.90;;;;;;;;;;5080925;28;20464;-82
2023/05/09 08:48:08;;;;;;;30.80;28.70;;;;;;;;;;5083214;28;20505;-84
2023/05/09 08:50:35;;;;;;;30.80;28.63;;;;;;;;;;5081750;28;20460;-81
2023/05/09 08:53:02;;;;;;;30.03;27.93;;;;;;;;;;5086222;28;20456;-84
2023/05/09 08:55:30;;;;;;;31.33;28.90;;;;;;;;;;5084423;28;20458;-83
2023/05/09 08:57:58;;;;;;;31.07;28.77;;;;;;;;;;5083492;28;20966;-83
2023/05/09 09:00:26;;;;;;;30.67;28.33;;;;;;;;;;5085967;28;20801;-84
2023/05/09 09:02:53;;;;;;;32.07;29.77;;;;;;;;;;5084784;28;20844;-81
2023/05/09 09:05:20;;;;;;;31.30;29.10;;;;;;;;;;5085668;28;20560;-81
2023/05/09 09:07:47;;;;;;;32.07;29.77;;;;;;;;;;5085397;28;20427;-81
2023/05/09 09:10:14;;;;;;;30.57;28.27;;;;;;;;;;5085116;28;20445;-82
2023/05/09 09:12:41;;;;;;;31.37;29.00;;;;;;;;;;5084951;28;20454;-81
2023/05/09 09:15:16;;;;;;;32.80;30.30;;;;;;;;;;5084007;28;20861;-82
2023/05/09 09:17:44;;;;;;;32.27;30.07;;;;;;;;;;5083536;28;20472;-83
2023/05/09 09:20:13;;;;;;;32.50;30.20;;;;;;;;;;5083743;28;20475;-83
2023/05/09 09:22:43;;;;;;;32.60;30.00;;;;;;;;;;5083978;28;20437;-83
2023/05/09 09:25:10;;;;;;;32.17;29.97;;;;;;;;;;5083778;28;20816;-83
2023/05/09 09:27:37;;;;;;;32.03;29.77;;;;;;;;;;5083117;28;20412;-82
2023/05/09 09:30:08;;;;;;;30.10;27.90;;;;;;;;;;5084576;28;20463;-81
2023/05/09 09:32:37;;;;;;;31.23;29.13;;;;;;;;;;5080909;28;20758;-82
2023/05/09 09:35:06;;;;;;;31.83;29.23;;;;;;;;;;5080912;28;20467;-81
2023/05/09 09:37:34;;;;;;;31.03;28.80;;;;;;;;;;5086519;28;20534;-82
2023/05/09 09:40:01;;;;;;;30.17;28.07;;;;;;;;;;5084847;28;20449;-82
2023/05/09 09:42:28;;;;;;;32.73;30.40;;;;;;;;;;5083361;28;20502;-81
2023/05/09 09:44:57;;;;;;;30.70;28.17;;;;;;;;;;5082147;28;20421;-82
2023/05/09 09:47:31;;;;;;;29.27;27.20;;;;;;;;;;5083050;28;20529;-81
2023/05/09 09:50:09;;;;;;;31.23;28.93;;;;;;;;;;5083584;28;20975;-82
2023/05/09 09:52:36;;;;;;;30.60;28.60;;;;;;;;;;5083121;28;20429;-81
2023/05/09 09:55:03;;;;;;;30.23;28.20;;;;;;;;;;5083521;28;20509;-82
2023/05/09 09:57:34;;;;;;;30.10;28.10;;;;;;;;;;5081698;28;20601;-82
2023/05/09 10:00:01;;;;;;;30.20;28.20;;;;;;;;;;5082440;28;20535;-81
2023/05/09 10:02:28;;;;;;;31.00;28.83;;;;;;;;;;5082725;28;20456;-80
2023/05/09 10:04:55;;;;;;;31.20;28.90;;;;;;;;;;5082892;28;20456;-82
2023/05/09 10:07:24;;;;;;;30.53;28.53;;;;;;;;;;5081677;28;20468;-81
2023/05/09 10:09:51;;;;;;;30.37;28.27;;;;;;;;;;5086973;28;20544;-81
2023/05/09 10:12:19;;;;;;;30.77;28.60;;;;;;;;;;5086818;28;20460;-82
2023/05/09 10:14:47;;;;;;;29.63;27.67;;;;;;;;;;5086607;28;20448;-81
2023/05/09 10:17:15;;;;;;;30.10;28.00;;;;;;;;;;5085054;28;20518;-82
2023/05/09 10:19:44;;;;;;;30.00;28.00;;;;;;;;;;5086466;28;20469;-81
2023/05/09 10:22:12;;;;;;;29.67;27.77;;;;;;;;;;5087059;28;20543;-83
2023/05/09 10:24:45;;;;;;;30.33;28.27;;;;;;;;;;5087941;28;20453;-83
2023/05/09 10:27:13;;;;;;;29.00;27.10;;;;;;;;;;5085678;28;20424;-83
2023/05/09 10:29:45;;;;;;;30.30;28.20;;;;;;;;;;5087171;28;20605;-84
2023/05/09 10:32:15;;;;;;;31.53;29.23;;;;;;;;;;5088246;28;20519;-82
2023/05/09 10:34:44;;;;;;;32.00;29.70;;;;;;;;;;5087709;28;20531;-82
2023/05/09 10:37:12;;;;;;;30.77;28.77;;;;;;;;;;5085576;28;20499;-81
2023/05/09 10:39:39;;;;;;;32.83;30.63;;;;;;;;;;5086226;28;20449;-82
2023/05/09 10:42:09;;;;;;;29.33;27.33;;;;;;;;;;5087168;28;20449;-83
2023/05/09 10:44:36;;;;;;;32.03;29.83;;;;;;;;;;5085818;28;20443;-81
2023/05/09 10:47:03;;;;;;;29.43;27.53;;;;;;;;;;5083701;28;20427;-80
2023/05/09 10:49:31;;;;;;;31.20;29.13;;;;;;;;;;5083798;28;20996;-79
2023/05/09 10:51:58;;;;;;;31.63;29.40;;;;;;;;;;5085461;28;20413;-82
2023/05/09 10:54:30;;;;;;;29.83;27.93;;;;;;;;;;5087439;28;20426;-81
2023/05/09 10:56:57;;;;;;;32.23;30.00;;;;;;;;;;5086970;28;20484;-79
2023/05/09 10:59:36;;;;;;;29.33;27.13;;;;;;;;;;5087568;28;20444;-81
2023/05/09 11:02:04;;;;;;;31.70;29.50;;;;;;;;;;5086695;28;20473;-81
2023/05/09 11:04:32;;;;;;;30.67;28.57;;;;;;;;;;5085521;28;20458;-81
2023/05/09 11:06:59;;;;;;;30.07;27.97;;;;;;;;;;5086527;28;20469;-81
2023/05/09 11:09:31;;;;;;;30.87;28.77;;;;;;;;;;5087516;28;20443;-81
2023/05/09 11:12:00;;;;;;;32.17;29.97;;;;;;;;;;5086436;28;20486;-82
2023/05/09 11:14:39;;;;;;;32.13;29.63;;;;;;;;;;5097319;28;20434;-80
2023/05/09 11:17:07;;;;;;;30.60;28.50;;;;;;;;;;5099063;28;20495;-79
2023/05/09 11:19:35;;;;;;;30.47;28.00;;;;;;;;;;5098486;28;20454;-79
2023/05/09 11:22:02;;;;;;;30.50;28.40;;;;;;;;;;5089879;28;20500;-81
2023/05/09 11:24:32;;;;;;;30.53;28.63;;;;;;;;;;5088078;28;20469;-81
2023/05/09 11:27:00;;;;;;;30.53;28.40;;;;;;;;;;5087831;28;20416;-83
2023/05/09 11:29:27;;;;;;;29.77;27.77;;;;;;;;;;5087829;28;20474;-84
2023/05/09 11:32:08;;;;;;;30.73;28.63;;;;;;;;;;5088011;28;20519;-82
2023/05/09 11:34:36;;;;;;;30.13;28.13;;;;;;;;;;5088555;28;20424;-82
2023/05/09 11:37:10;;;;;;;30.23;28.00;;;;;;;;;;5088182;28;20444;-84
2023/05/09 11:39:56;;;;;;;29.77;27.83;;;;;;;;;;5087421;28;20473;-84
2023/05/09 11:42:23;;;;;;;30.53;28.53;;;;;;;;;;5085596;28;20440;-83
2023/05/09 11:44:50;;;;;;;31.80;29.10;;;;;;;;;;5086279;28;20445;-82
2023/05/09 11:47:18;;;;;;;29.90;28.00;;;;;;;;;;5085496;28;20480;-82
2023/05/09 11:49:46;;;;;;;29.10;27.30;;;;;;;;;;5086669;28;20841;-83
2023/05/09 11:52:13;;;;;;;29.13;27.20;;;;;;;;;;5086489;28;20413;-82
2023/05/09 11:54:40;;;;;;;30.27;28.20;;;;;;;;;;5085151;28;20905;-80
2023/05/09 11:57:07;;;;;;;30.60;28.40;;;;;;;;;;5084230;28;20539;-81
2023/05/09 11:59:35;;;;;;;28.83;26.77;;;;;;;;;;5085665;28;20470;-82
2023/05/09 12:02:05;;;;;;;29.37;27.47;;;;;;;;;;5085293;28;20485;-82
2023/05/09 12:04:34;;;;;;;27.87;25.73;;;;;;;;;;5084417;28;20495;-82
2023/05/09 12:07:01;;;;;;;27.50;25.70;;;;;;;;;;5083076;28;20867;-80
2023/05/09 12:09:31;;;;;;;28.00;26.10;;;;;;;;;;5084700;28;20455;-81
2023/05/09 12:11:58;;;;;;;26.93;25.23;;;;;;;;;;5084495;28;20855;-80
2023/05/09 12:14:28;;;;;;;26.60;24.60;;;;;;;;;;5084300;28;20450;-81
2023/05/09 12:16:55;;;;;;;27.47;25.63;;;;;;;;;;5082550;28;20624;-81
2023/05/09 12:19:23;;;;;;;27.70;25.80;;;;;;;;;;5084087;28;20437;-81
2023/05/09 12:21:55;;;;;;;25.93;24.30;;;;;;;;;;5084594;28;20417;-81
2023/05/09 12:24:22;;;;;;;26.63;25.03;;;;;;;;;;5084383;28;21041;-82
2023/05/09 12:26:49;;;;;;;27.33;25.63;;;;;;;;;;5083677;28;20427;-81
2023/05/09 12:29:17;;;;;;;27.00;25.33;;;;;;;;;;5084421;28;20474;-81
2023/05/09 12:31:44;;;;;;;26.67;24.97;;;;;;;;;;5083509;28;20466;-82
2023/05/09 12:34:12;;;;;;;28.13;26.33;;;;;;;;;;5083851;28;20484;-82
2023/05/09 12:36:39;;;;;;;27.80;26.00;;;;;;;;;;5082369;28;20922;-81
2023/05/09 12:39:10;;;;;;;27.50;25.60;;;;;;;;;;5084361;28;20499;-82
2023/05/09 12:41:43;;;;;;;27.83;26.10;;;;;;;;;;5083371;28;20561;-81
2023/05/09 12:44:10;;;;;;;27.83;26.13;;;;;;;;;;5083256;28;20874;-81
2023/05/09 12:46:37;;;;;;;28.17;26.37;;;;;;;;;;5083100;28;20805;-81
2023/05/09 12:49:04;;;;;;;27.80;26.00;;;;;;;;;;5082911;28;20849;-82
2023/05/09 12:51:31;;;;;;;28.23;26.43;;;;;;;;;;5082883;28;20441;-82
2023/05/09 12:54:03;;;;;;;28.17;26.27;;;;;;;;;;5083521;28;20408;-79
2023/05/09 12:56:35;;;;;;;26.80;25.20;;;;;;;;;;5082806;28;20419;-81
2023/05/09 12:59:02;;;;;;;27.33;25.63;;;;;;;;;;5083115;28;20466;-81
2023/05/09 13:01:29;;;;;;;28.70;26.70;;;;;;;;;;5083075;28;20482;-82
2023/05/09 13:04:02;;;;;;;28.00;26.30;;;;;;;;;;5083601;28;20909;-82
2023/05/09 13:06:29;;;;;;;30.17;27.87;;;;;;;;;;5082521;28;20472;-81
2023/05/09 13:09:00;;;;;;;28.43;26.33;;;;;;;;;;5082878;28;21025;-81
2023/05/09 13:11:27;;;;;;;29.60;27.60;;;;;;;;;;5083482;28;20428;-82
2023/05/09 13:13:56;;;;;;;28.13;26.40;;;;;;;;;;5082865;28;20485;-82
2023/05/09 13:16:23;;;;;;;29.57;27.77;;;;;;;;;;5084439;28;20449;-83
2023/05/09 13:18:50;;;;;;;29.30;27.40;;;;;;;;;;5085852;28;20451;-82
2023/05/09 13:21:17;;;;;;;27.87;25.97;;;;;;;;;;5086173;28;20503;-82
2023/05/09 13:23:44;;;;;;;28.43;26.63;;;;;;;;;;5085440;28;20913;-82
2023/05/09 13:26:11;;;;;;;28.17;26.27;;;;;;;;;;5083360;28;20987;-80
2023/05/09 13:28:38;;;;;;;29.30;27.40;;;;;;;;;;5081432;28;20416;-86
2023/05/09 13:31:07;;;;;;;28.90;27.10;;;;;;;;;;5080023;28;20434;-88
2023/05/09 13:33:34;;;;;;;28.63;26.90;;;;;;;;;;5083531;28;20957;-87
2023/05/09 13:36:01;;;;;;;28.33;26.63;;;;;;;;;;5080761;28;20462;-87
2023/05/09 13:38:29;;;;;;;28.47;26.67;;;;;;;;;;5078146;28;20444;-79
2023/05/09 13:40:56;;;;;;;28.70;26.90;;;;;;;;;;5078284;28;20462;-89
2023/05/09 13:43:23;;;;;;;28.20;26.30;;;;;;;;;;5079283;28;20492;-88
2023/05/09 13:45:50;;;;;;;29.23;27.10;;;;;;;;;;5078603;28;20412;-85
2023/05/09 13:48:19;;;;;;;28.60;26.67;;;;;;;;;;5075702;28;20543;-78
2023/05/09 13:50:46;;;;;;;28.40;26.40;;;;;;;;;;5076067;28;20562;-79
2023/05/09 13:53:13;;;;;;;28.80;26.90;;;;;;;;;;5075325;28;20424;-78
2023/05/09 13:55:40;;;;;;;28.30;26.00;;;;;;;;;;5077054;28;20499;-78
2023/05/09 13:58:07;;;;;;;28.57;26.77;;;;;;;;;;5076656;28;20477;-85
2023/05/09 14:00:34;;;;;;;28.77;26.87;;;;;;;;;;5077796;28;20456;-79
2023/05/09 14:03:02;;;;;;;29.37;27.33;;;;;;;;;;5075656;28;20505;-79
2023/05/09 14:05:31;;;;;;;27.90;25.93;;;;;;;;;;5075934;28;20440;-79
2023/05/09 14:08:00;;;;;;;28.30;26.40;;;;;;;;;;5076465;28;20507;-79
2023/05/09 14:10:27;;;;;;;28.63;26.70;;;;;;;;;;5077435;28;20474;-84
2023/05/09 14:12:55;;;;;;;27.03;25.30;;;;;;;;;;5080290;28;20461;-83
2023/05/09 14:15:22;;;;;;;27.30;25.60;;;;;;;;;;5082121;28;20451;-83
2023/05/09 14:17:49;;;;;;;26.73;25.03;;;;;;;;;;5081619;28;20494;-83
2023/05/09 14:20:17;;;;;;;27.57;25.87;;;;;;;;;;5082255;28;20453;-83